Surface/Atmospheric History
02/08/2018 18:21  to  2/9/2018 18:21
Change End Date:
To complete the export process:
1) Select all of the data below
2) Copy the data to the clipboard
3) Open a word processor such as Notepad
4) Paste the data into the word processor
5) Save the file

Date/Time (MST), SfStat, SfTemp, PvtTemp, SubTemp, AirTemp, RH, Dewpoint, AvgWindSpeed, GustWindSpeed, WindDirection, PrecipType, PrecipIntenisity
02/09/2018 18:18, Ice Watch , -0.8 , , 21, -9, 84, -12, 3, 6, SW, None, None
02/09/2018 18:14, Ice Watch , -0.6 , , 21, -9, 83, -13, 4, 6, W, None, None
02/09/2018 18:04, Ice Watch , -0.4 , , 21, -8, 84, -12, 4, 5, W, None, None
02/09/2018 18:03, Ice Watch , -0.2 , , 21, -8, 85, -11, 4, 5, W, None, None
02/09/2018 17:54, Ice Watch , 0 , , 21, -9, 83, -13, 4, 6, W, None, None
02/09/2018 17:48, Ice Watch , 0.1 , , 21, -8, 85, -11, 5, 6, W, None, None
02/09/2018 17:44, Ice Watch , 0.3 , , 21, -7, 86, -10, 4, 6, NW, None, None
02/09/2018 17:34, Ice Watch , 1 , , 21, -7, 86, -10, 4, 6, W, None, None
02/09/2018 17:33, Ice Watch , 1.2 , , 21, -7, 86, -10, 4, 6, W, None, None
02/09/2018 17:23, Ice Watch , 1.8 , , 21, -7, 86, -10, 5, 6, W, None, None
02/09/2018 17:18, Ice Watch , 2.1 , , 22, -6, 85, -9, 5, 6, W, None, None
02/09/2018 17:13, Ice Watch , 2.7 , , 21, -5, 85, -9, 4, 6, W, None, None
02/09/2018 17:03, Ice Watch , 3.4 , , 21, -5, 84, -8, 6, 7, W, None, None
02/09/2018 17:03, Ice Watch , 3.6 , , 21, -5, 84, -8, 6, 7, W, None, None
02/09/2018 16:53, Ice Watch , 4.3 , , 21, -4, 84, -8, 5, 7, W, None, None
02/09/2018 16:48, Ice Watch , 4.8 , , 21, -4, 84, -8, 6, 9, W, None, None
02/09/2018 16:43, Ice Watch , 5.2 , , 22, -4, 84, -7, 6, 9, W, None, None
02/09/2018 16:33, Ice Watch , 6.1 , , 22, -4, 82, -8, 4, 6, W, None, None
02/09/2018 16:33, Ice Watch , 6.3 , , 21, -4, 82, -8, 4, 6, W, None, None
02/09/2018 16:23, Ice Watch , 5.9 , , 22, -5, 82, -9, 4, 6, W, None, None
02/09/2018 16:18, Ice Watch , 6.4 , , 22, -5, 81, -9, 4, 6, W, None, None
02/09/2018 16:13, Ice Watch , 6.6 , , 22, -4, 80, -9, 5, 6, W, None, None
02/09/2018 16:03, Ice Watch , 7.9 , , 22, -3, 80, -8, 6, 9, W, None, None
02/09/2018 15:53, Ice Watch , 7.3 , , 22, -4, 81, -9, 7, 9, W, None, None
02/09/2018 15:48, Ice Watch , 8.1 , , 22, -4, 78, -9, 7, 9, W, None, None
02/09/2018 15:43, Ice Watch , 8.6 , , 22, -4, 79, -9, 6, 7, W, None, None
02/09/2018 15:33, Ice Watch , 8.2 , , 22, -4, 82, -9, 5, 7, W, None, None
02/09/2018 15:33, Ice Watch , 8.1 , , 22, -4, 82, -9, 6, 7, W, None, None
02/09/2018 15:23, Ice Watch , 8.8 , , 22, -4, 82, -8, 6, 9, W, None, None
02/09/2018 15:18, Ice Watch , 9 , , 22, -4, 82, -8, 7, 9, W, None, None
02/09/2018 15:13, Ice Watch , 9.3 , , 22, -4, 83, -8, 7, 9, NW, None, None
02/09/2018 15:03, Ice Watch , 9.9 , , 22, -4, 81, -9, 8, 9, NW, None, None
02/09/2018 15:03, Ice Watch , 10 , , 22, -4, 81, -9, 7, 9, NW, None, None
02/09/2018 14:53, Ice Watch , 11.5 , , 22, -3, 78, -8, 7, 9, W, None, None
02/09/2018 14:48, Ice Watch , 12.2 , , 22, -3, 77, -8, 7, 9, W, None, None
02/09/2018 14:43, Ice Watch , 12.2 , , 22, -3, 79, -8, 6, 9, W, None, None
02/09/2018 14:33, Ice Watch , 13.1 , , 22, -3, 77, -8, 7, 9, W, None, None
02/09/2018 14:33, Ice Watch , 13.3 , , 22, -3, 77, -8, 7, 9, W, None, None
02/09/2018 14:22, Ice Watch , 14.4 , , 22, -2, 77, -8, 6, 9, NW, None, None
02/09/2018 14:18, Ice Watch , 14.5 , , 22, -2, 77, -8, 7, 9, W, None, None
02/09/2018 14:12, Ice Watch , 14.9 , , 22, -2, 76, -8, 7, 9, W, None, None
02/09/2018 14:03, Ice Watch , 16 , , 22, -2, 73, -8, 7, 9, W, None, None
02/09/2018 14:02, Ice Watch , 16 , , 22, -2, 73, -8, 7, 9, W, None, None
02/09/2018 13:52, Ice Watch , 16.3 , , 22, -1, 74, -7, 6, 8, NW, None, None
02/09/2018 13:48, Ice Watch , 16.5 , , 22, -1, 73, -8, 6, 8, NW, Yes,
02/09/2018 13:42, Ice Watch , 16.9 , , 22, -1, 71, -8, 6, 9, NW, Yes,
02/09/2018 13:33, Ice Watch , 17.2 , , 22, 0, 71, -7, 6, 7, NW, None, None
02/09/2018 13:32, Ice Watch , 17.2 , , 22, 0, 71, -7, 6, 7, NW, None, None
02/09/2018 13:22, Ice Watch , 17.2 , , 22, 0, 71, -7, 5, 7, W, None, None
02/09/2018 13:18, Ice Watch , 17.1 , , 22, 0, 71, -8, 5, 7, W, None, None
02/09/2018 13:12, Ice Watch , 16.9 , , 22, -1, 72, -8, 5, 6, W, Yes,
02/09/2018 13:03, Ice Watch , 16.3 , , 22, -3, 74, -9, 4, 6, W, None, None
02/09/2018 13:02, Ice Watch , 16.2 , , 22, -2, 73, -9, 4, 6, W, None, None
02/09/2018 12:52, Ice Watch , 15.8 , , 22, -1, 74, -7, 4, 6, W, None, None
02/09/2018 12:48, Ice Watch , 15.3 , , 22, -1, 74, -8, 4, 6, W, Yes,
02/09/2018 12:42, Ice Watch , 14.2 , , 22, -2, 75, -8, 5, 7, NW, None, None
02/09/2018 12:33, Ice Watch , 13.6 , , 22, -3, 77, -8, 6, 7, W, Yes,
02/09/2018 12:32, Ice Watch , 13.6 , , 22, -3, 77, -8, 6, 7, W, None, None
02/09/2018 12:22, Ice Watch , 13.5 , , 22, -2, 76, -7, 4, 6, NW, Yes,
02/09/2018 12:18, Ice Watch , 13.5 , , 22, -2, 77, -7, 4, 6, NW, None, None
02/09/2018 12:12, Ice Watch , 13.1 , , 22, -3, 78, -8, 4, 7, NW, None, None
02/09/2018 12:03, Ice Watch , 12.6 , , 22, -3, 79, -8, 6, 8, N, None, None
02/09/2018 12:02, Ice Watch , 12.6 , , 22, -3, 78, -8, 6, 8, N, None, None
02/09/2018 11:52, Ice Watch , 13.3 , , 22, -3, 78, -8, 6, 7, N, None, None
02/09/2018 11:48, Ice Watch , 13.3 , , 22, -3, 78, -8, 6, 8, N, None, None
02/09/2018 11:42, Ice Watch , 13.1 , , 22, -3, 77, -8, 6, 9, N, None, None
02/09/2018 11:33, Ice Watch , 14.4 , , 22, -2, 76, -8, 7, 8, N, None, None
02/09/2018 11:31, Ice Watch , 14.5 , , 22, -2, 75, -8, 6, 7, N, None, None
02/09/2018 11:21, Ice Watch , 16 , , 22, 0, 78, -5, 2, 4, N, None, None
02/09/2018 11:18, Ice Watch , 14.5 , , 22, 0, 80, -5, 1, 4, N, Yes,
02/09/2018 11:11, Ice Watch , 13.5 , , 22, -1, 81, -5, 3, 5, NW, Yes,
02/09/2018 11:03, Ice Watch , 11.3 , , 22, -2, 83, -6, 4, 4, NW, Yes,
02/09/2018 11:01, Ice Watch , 11.3 , , 22, -3, 82, -7, 3, 6, N, None, None
02/09/2018 10:51, Ice Watch , 11.8 , , 22, -3, 82, -7, 4, 6, N, None, None
02/09/2018 10:48, Ice Watch , 12.2 , , 22, -3, 82, -7, 4, 6, N, None, None
02/09/2018 10:41, Ice Watch , 13.1 , , 22, -2, 83, -6, 4, 6, N, None, None
02/09/2018 10:33, Ice Watch , 14.2 , , 22, -3, 82, -7, 4, 6, N, None, None
02/09/2018 10:31, Ice Watch , 14.2 , , 22, -3, 82, -7, 4, 6, N, None, None
02/09/2018 10:21, Ice Watch , 14.7 , , 22, -2, 82, -6, 4, 6, N, None, None
02/09/2018 10:18, Ice Watch , 14.2 , , 22, -1, 83, -5, 2, 4, NW, None, None
02/09/2018 10:11, Ice Watch , 13.1 , , 22, -1, 84, -5, 1, 4, NW, Yes,
02/09/2018 10:03, Ice Watch , 11.8 , , 22, -2, 84, -6, 3, 4, NW, None, None
02/09/2018 10:01, Ice Watch , 11.7 , , 22, -2, 84, -6, 2, 4, NW, Yes,
02/09/2018 09:51, Ice Watch , 10.8 , , 22, -2, 84, -6, 1, 2, W, None, None
02/09/2018 09:48, Ice Watch , 10.6 , , 22, -2, 85, -5, 1, 2, NW, Yes,
02/09/2018 09:41, Ice Watch , 10.2 , , 22, -3, 84, -7, 2, 2, NW, None, None
02/09/2018 09:33, Ice Watch , 10 , , 22, -4, 83, -8, 1, 1, SW, Yes,
02/09/2018 09:31, Ice Watch , 9.9 , , 22, -4, 83, -8, 1, 1, SW, Yes,
02/09/2018 09:21, Ice Watch , 9.5 , , 22, -4, 84, -7, 0, 1, NE, Yes,
02/09/2018 09:18, Ice Watch , 9.5 , , 22, -4, 83, -8, 0, 1, N, Yes,
02/09/2018 09:11, Ice Watch , 9.3 , , 22, -4, 83, -8, 0, 1, E, Yes,
02/09/2018 09:03, Ice Watch , 9 , , 22, -4, 84, -7, 0, 0, NE, Yes,
02/09/2018 09:01, Ice Watch , 8.4 , , 22, -4, 84, -7, 0, 0, E, Yes,
02/09/2018 08:51, Ice Watch , 7.3 , , 22, -5, 84, -9, 0, 1, S, Yes,
02/09/2018 08:48, Ice Watch , 7.2 , , 22, -5, 83, -9, 0, 1, S, Yes,
02/09/2018 08:41, Ice Watch , 6.3 , , 22, -6, 83, -10, 1, 1, S, None, None
02/09/2018 08:33, Ice Watch , 5.9 , , 22, -6, 83, -10, 1, 4, E, Yes,
02/09/2018 08:30, Ice Watch , 5.7 , , 22, -6, 83, -10, 1, 4, E, Yes,
02/09/2018 08:20, Ice Watch , 4.8 , , 22, -6, 83, -10, 4, 5, NE, Yes,
02/09/2018 08:18, Ice Watch , 4.6 , , 22, -7, 83, -10, 4, 5, NE, Yes,
02/09/2018 08:10, Ice Watch , 4.5 , , 22, -7, 83, -10, 4, 5, E, Yes,
02/09/2018 08:03, Ice Watch , 3.7 , , 22, -7, 83, -10, 4, 5, NE, Yes,
02/09/2018 08:00, Ice Watch , 3.7 , , 22, -7, 83, -10, 4, 5, NE, Yes,
02/09/2018 07:50, Ice Watch , 3.2 , , 22, -7, 83, -10, 4, 6, NE, Yes,
02/09/2018 07:48, Ice Watch , 3.2 , , 22, -7, 83, -10, 6, 6, NE, Yes,
02/09/2018 07:40, Ice Watch , 3.2 , , 22, -7, 83, -11, 4, 4, NE, Yes,
02/09/2018 07:33, Ice Watch , 3.2 , , 22, -7, 83, -11, 2, 6, NE, Yes,
02/09/2018 07:30, Ice Watch , 3 , , 22, -7, 83, -11, 4, 6, NE, Yes,
02/09/2018 07:20, Ice Watch , 2.8 , , 23, -7, 83, -11, 4, 6, E, None, None
02/09/2018 07:18, Ice Watch , 2.8 , , 23, -7, 83, -11, 5, 6, E, None, None
02/09/2018 07:10, Ice Watch , 2.8 , , 23, -7, 83, -11, 6, 6, NE, None, None
02/09/2018 07:03, Ice Watch , 3 , , 23, -7, 83, -11, 4, 4, E, None, None
02/09/2018 07:00, Ice Watch , 3 , , 23, -7, 83, -11, 4, 4, E, Yes,
02/09/2018 06:50, Ice Watch , 2.8 , , 23, -7, 83, -10, 4, 5, E, Yes,
02/09/2018 06:48, Ice Watch , 2.8 , , 23, -7, 83, -10, 4, 5, E, Yes,
02/09/2018 06:40, Ice Watch , 2.5 , , 23, -7, 83, -11, 4, 4, NE, Yes,
02/09/2018 06:33, Ice Watch , 2.5 , , 23, -7, 83, -11, 3, 6, NE, Yes,
02/09/2018 06:30, Ice Watch , 2.3 , , 23, -7, 83, -11, 4, 6, NE, Yes,
02/09/2018 06:20, Ice Watch , 2.1 , , 23, -7, 83, -11, 7, 7, NE, Yes,
02/09/2018 06:18, Ice Watch , 2.1 , , 23, -7, 83, -11, 6, 7, NE, Yes,
02/09/2018 06:10, Ice Watch , 2.1 , , 23, -7, 83, -11, 4, 7, E, Yes,
02/09/2018 06:03, Ice Watch , 1.8 , , 23, -7, 83, -11, 6, 7, NE, Yes,
02/09/2018 06:00, Ice Watch , 1.9 , , 23, -7, 83, -10, 6, 7, NE, Yes,
02/09/2018 05:50, Ice Watch , 1.8 , , 23, -7, 83, -10, 6, 9, NE, Yes,
02/09/2018 05:48, Ice Watch , 1.8 , , 23, -7, 83, -10, 6, 9, NE, Yes,
02/09/2018 05:40, Ice Watch , 1.8 , , 23, -7, 83, -10, 7, 9, NE, None, None
02/09/2018 05:33, Ice Watch , 1.8 , , 23, -7, 83, -10, 7, 9, NE, Yes,
02/09/2018 05:29, Ice Watch , 1.8 , , 23, -7, 83, -10, 7, 9, NE, None, None
02/09/2018 05:19, Ice Watch , 1.8 , , 23, -7, 83, -10, 8, 9, NE, None, None
02/09/2018 05:18, Ice Watch , 1.8 , , 23, -7, 83, -10, 8, 9, NE, None, None
02/09/2018 05:09, Ice Watch , 1.8 , , 23, -7, 83, -10, 6, 9, NE, None, None
02/09/2018 05:03, Ice Watch , 1.8 , , 23, -7, 83, -10, 8, 9, NE, None, None
02/09/2018 04:59, Ice Watch , 1.8 , , 23, -7, 83, -10, 7, 9, NE, None, None
02/09/2018 04:49, Ice Watch , 1.8 , , 23, -7, 83, -11, 7, 9, NE, None, None
02/09/2018 04:48, Ice Watch , 1.8 , , 23, -7, 83, -11, 7, 9, NE, None, None
02/09/2018 04:39, Ice Watch , 1.6 , , 23, -7, 83, -11, 8, 9, NE, None, None
02/09/2018 04:33, Ice Watch , 1.6 , , 23, -7, 83, -11, 6, 8, NE, None, None
02/09/2018 04:29, Ice Watch , 1.6 , , 23, -7, 83, -11, 7, 8, NE, None, None
02/09/2018 04:19, Ice Watch , 1.6 , , 23, -7, 83, -11, 6, 7, NE, None, None
02/09/2018 04:18, Ice Watch , 1.6 , , 23, -8, 83, -11, 6, 7, NE, None, None
02/09/2018 04:09, Ice Watch , 1.2 , , 23, -8, 83, -11, 4, 6, NE, None, None
02/09/2018 04:03, Ice Watch , 0.7 , , 23, -8, 83, -12, 4, 6, NE, None, None
02/09/2018 03:59, Ice Watch , 0.3 , , 23, -9, 82, -13, 6, 6, NE, None, None
02/09/2018 03:49, Ice Watch , -0.6 , , 23, -8, 83, -12, 6, 9, NE, None, None
02/09/2018 03:48, Ice Watch , -0.6 , , 23, -8, 83, -11, 7, 9, NE, None, None
02/09/2018 03:39, Ice Watch , -0.4 , , 23, -8, 83, -12, 6, 7, NE, None, None
02/09/2018 03:33, Ice Watch , -0.6 , , 23, -7, 84, -11, 6, 6, E, None, None
02/09/2018 03:29, Ice Watch , -0.4 , , 24, -8, 83, -12, 4, 6, E, None, None
02/09/2018 03:19, Ice Watch , -0.2 , , 24, -8, 83, -12, 4, 9, E, None, None
02/09/2018 03:18, Ice Watch , -0.2 , , 24, -8, 83, -12, 4, 9, E, None, None
02/09/2018 03:09, Ice Watch , 0 , , 24, -8, 83, -12, 9, 9, E, None, None
02/09/2018 03:03, Ice Watch , 0.1 , , 24, -8, 83, -12, 7, 9, NE, None, None
02/09/2018 02:59, Ice Watch , 0.3 , , 24, -7, 83, -11, 9, 10, E, None, None
02/09/2018 02:49, Ice Watch , 0.5 , , 24, -7, 83, -11, 9, 10, NE, None, None
02/09/2018 02:48, Ice Watch , 0.5 , , 24, -7, 83, -11, 9, 10, NE, None, None
02/09/2018 02:39, Ice Watch , 1.2 , , 24, -7, 83, -11, 7, 7, NE, None, None
02/09/2018 02:33, Ice Watch , 2.1 , , 24, -6, 84, -10, 6, 7, NE, None, None
02/09/2018 02:28, Ice Watch , 2.5 , , 24, -6, 84, -9, 6, 7, NE, None, None
02/09/2018 02:18, Ice Watch , 2.5 , , 24, -6, 84, -10, 2, 6, E, None, None
02/09/2018 02:18, Ice Watch , 2.5 , , 24, -6, 84, -10, 2, 6, NE, None, None
02/09/2018 02:08, Ice Watch , 1.9 , , 24, -6, 84, -10, 6, 7, NE, None, None
02/09/2018 02:03, Ice Watch , 1.9 , , 24, -6, 84, -9, 5, 7, NE, None, None
02/09/2018 01:58, Ice Watch , 1.8 , , 24, -6, 84, -9, 6, 7, NE, None, None
02/09/2018 01:48, Ice Watch , 1.6 , , 24, -6, 85, -9, 7, 10, NE, None, None
02/09/2018 01:48, Ice Watch , 1.6 , , 24, -6, 84, -9, 7, 10, NE, None, None
02/09/2018 01:38, Ice Watch , 1.4 , , 24, -5, 85, -9, 9, 12, NE, None, None
02/09/2018 01:33, Ice Watch , 1.4 , , 24, -6, 84, -9, 9, 12, NE, None, None
02/09/2018 01:28, Ice Watch , 1.4 , , 24, -5, 85, -9, 10, 12, NE, None, None
02/09/2018 01:18, Ice Watch , 1.4 , , 24, -5, 85, -8, 8, 11, NE, None, None
02/09/2018 01:18, Ice Watch , 1.4 , , 24, -5, 85, -8, 8, 11, NE, None, None
02/09/2018 01:08, Ice Watch , 2.1 , , 24, -5, 85, -8, 8, 12, NE, None, None
02/09/2018 01:03, Ice Watch , 2.5 , , 24, -4, 85, -8, 9, 12, NE, None, None
02/09/2018 00:58, Ice Watch , 2.8 , , 24, -4, 85, -7, 10, 12, NE, None, None
02/09/2018 00:48, Ice Watch , 3.4 , , 24, -4, 86, -7, 9, 11, NE, None, None
02/09/2018 00:48, Ice Watch , 3.4 , , 24, -4, 86, -7, 9, 11, NE, None, None
02/09/2018 00:38, Ice Watch , 3.7 , , 24, -4, 86, -7, 7, 10, NE, None, None
02/09/2018 00:33, Ice Watch , 3.7 , , 24, -4, 86, -7, 7, 9, NE, None, None
02/09/2018 00:28, Ice Watch , 3.9 , , 24, -4, 86, -7, 7, 9, NE, None, None
02/09/2018 00:18, Ice Watch , 4.6 , , 24, -3, 87, -6, 4, 6, NE, None, None
02/09/2018 00:18, Ice Watch , 4.6 , , 24, -3, 87, -6, 4, 6, NE, None, None
02/09/2018 00:08, Ice Watch , 4.3 , , 24, -3, 86, -7, 3, 7, NE, None, None
02/09/2018 00:03, Ice Watch , 4.1 , , 24, -3, 87, -6, 4, 7, NE, None, None
02/08/2018 23:58, Ice Watch , 3.9 , , 24, -3, 87, -6, 4, 7, NE, None, None
02/08/2018 23:48, Ice Watch , 4.3 , , 24, -3, 87, -6, 5, 8, NE, None, None
02/08/2018 23:48, Ice Watch , 4.3 , , 24, -3, 87, -6, 5, 8, NE, Yes,
02/08/2018 23:38, Ice Watch , 4.6 , , 24, -3, 87, -6, 4, 7, NE, None, None
02/08/2018 23:33, Ice Watch , 4.6 , , 24, -3, 87, -6, 4, 8, N, None, None
02/08/2018 23:27, Ice Watch , 4.6 , , 24, -3, 87, -6, 6, 9, N, None, None
02/08/2018 23:18, Ice Watch , 4.6 , , 24, -3, 87, -5, 6, 7, NE, None, None
02/08/2018 23:17, Ice Watch , 4.6 , , 24, -3, 88, -5, 6, 7, NE, None, None
02/08/2018 23:07, Ice Watch , 4.1 , , 24, -3, 86, -6, 5, 6, N, None, None
02/08/2018 23:03, Ice Watch , 4.1 , , 24, -3, 86, -6, 6, 6, N, None, None
02/08/2018 22:57, Ice Watch , 4.1 , , 24, -3, 87, -5, 4, 6, NE, None, None
02/08/2018 22:48, Ice Watch , 4.3 , , 24, -2, 85, -6, 4, 6, N, None, None
02/08/2018 22:47, Ice Watch , 4.3 , , 24, -2, 85, -6, 4, 6, N, None, None
02/08/2018 22:37, Ice Watch , 4.8 , , 24, -2, 84, -5, 4, 7, N, None, None
02/08/2018 22:33, Ice Watch , 5.2 , , 24, -2, 85, -5, 5, 7, N, None, None
02/08/2018 22:27, Ice Watch , 5.5 , , 24, -2, 85, -5, 4, 7, NE, Yes,
02/08/2018 22:18, Ice Watch , 5.7 , , 24, -1, 85, -5, 4, 7, N, None, None
02/08/2018 22:17, Ice Watch , 5.7 , , 24, -1, 85, -5, 6, 7, N, None, None
02/08/2018 22:07, Ice Watch , 5.9 , , 24, -1, 84, -5, 6, 7, NE, None, None
02/08/2018 22:03, Ice Watch , 6.1 , , 24, -1, 84, -4, 4, 10, NE, None, None
02/08/2018 21:57, Ice Watch , 6.1 , , 24, -1, 84, -4, 7, 10, NE, None, None
02/08/2018 21:48, Ice Watch , 6.3 , , 24, -1, 84, -4, 7, 10, NE, None, None
02/08/2018 21:47, Ice Watch , 6.3 , , 24, -1, 84, -4, 7, 10, NE, None, None
02/08/2018 21:37, Ice Watch , 6.4 , , 24, 0, 84, -4, 7, 9, N, None, None
02/08/2018 21:33, Ice Watch , 6.8 , , 24, 0, 85, -4, 6, 10, N, Yes,
02/08/2018 21:27, Ice Watch , 6.8 , , 24, 0, 85, -4, 9, 11, NE, None, None
02/08/2018 21:18, Ice Watch , 7 , , 24, 0, 85, -4, 9, 12, NE, None, None
02/08/2018 21:17, Ice Watch , 7 , , 24, 0, 85, -4, 9, 12, NE, None, None
02/08/2018 21:07, Ice Watch , 7.2 , , 24, 0, 85, -4, 9, 13, NE, None, None
02/08/2018 21:03, Ice Watch , 7 , , 24, 0, 84, -4, 9, 13, NE, None, None
02/08/2018 20:57, Ice Watch , 7 , , 24, 0, 84, -4, 10, 15, NE, None, None
02/08/2018 20:48, Ice Watch , 7 , , 24, 0, 85, -4, 12, 14, NE, None, None
02/08/2018 20:47, Ice Watch , 7.2 , , 24, 0, 85, -3, 9, 13, NE, Yes,
02/08/2018 20:37, Ice Watch , 7.3 , , 24, 0, 86, -3, 10, 12, N, Yes,
02/08/2018 20:33, Ice Watch , 7.3 , , 24, 0, 86, -3, 9, 12, NE, Yes,
02/08/2018 20:26, Ice Watch , 7.3 , , 24, 1, 86, -3, 10, 13, N, None, None
02/08/2018 20:18, Ice Watch , 7.5 , , 24, 1, 86, -3, 10, 13, NE, Yes,
02/08/2018 20:16, Ice Watch , 7.7 , , 24, 1, 86, -3, 8, 12, NE, Yes,
02/08/2018 20:06, Ice Watch , 7.3 , , 24, 1, 85, -3, 9, 13, NE, None, None
02/08/2018 20:03, Ice Watch , 7.5 , , 24, 1, 86, -3, 7, 12, NE, None, None
02/08/2018 19:56, Ice Watch , 7.5 , , 24, 1, 85, -3, 10, 13, NE, None, None
02/08/2018 19:48, Ice Watch , 7.7 , , 24, 1, 86, -2, 10, 13, NE, None, None
02/08/2018 19:46, Ice Watch , 7.7 , , 24, 1, 86, -2, 7, 10, N, None, None
02/08/2018 19:36, Ice Watch , 7.5 , , 24, 1, 86, -2, 7, 13, NE, None, None
02/08/2018 19:33, Ice Watch , 7.5 , , 24, 1, 86, -2, 7, 14, NE, None, None
02/08/2018 19:26, Ice Watch , 7.3 , , 24, 1, 86, -2, 9, 15, NE, None, None
02/08/2018 19:18, Ice Watch , 7 , , 24, 1, 86, -2, 12, 16, NE, None, None
02/08/2018 19:16, Ice Watch , 6.8 , , 24, 1, 86, -2, 11, 16, NE, Yes,
02/08/2018 19:06, Ice Watch , 7 , , 24, 1, 85, -2, 11, 14, NE, None, None
02/08/2018 19:03, Ice Watch , 7.3 , , 24, 1, 85, -2, 11, 16, NE, None, None
02/08/2018 18:56, Ice Watch , 7.7 , , 24, 1, 85, -2, 12, 16, NE, None, None
02/08/2018 18:48, Ice Watch , 7.5 , , 24, 1, 85, -2, 10, 12, NE, None, None
02/08/2018 18:46, Ice Watch , 7.3 , , 24, 1, 85, -2, 10, 12, NE, None, None
02/08/2018 18:36, Ice Watch , 7.5 , , 24, 1, 85, -2, 9, 16, NE, None, None
02/08/2018 18:33, Ice Watch , 7.5 , , 24, 1, 85, -2, 12, 17, NE, None, None
02/08/2018 18:26, Ice Watch , 8.1 , , 24, 2, 86, -2, 11, 17, NE, None, None
Change End Date:

Copyright © 1998-2015 Vaisala, Inc.
All Rights Reserved
Send comments about the data to:
SCAN Web ® is a registered trademark of Vaisala, Inc.
SCAN Web Version 6.0